createdAt,value
2022-12-01T00:07:15.807Z,10.5
2022-12-01T00:37:15.010Z,11.4
2022-12-01T01:07:14.628Z,10.4
2022-12-01T01:37:14.005Z,11.3
2022-12-01T02:07:14.967Z,11.5
2022-12-01T02:37:18.331Z,11.4
2022-12-01T03:07:16.683Z,10.6
2022-12-01T03:37:14.338Z,9.8
2022-12-01T04:07:13.297Z,10.4
2022-12-01T04:37:11.823Z,9.8
2022-12-01T05:07:10.634Z,10
2022-12-01T05:37:09.595Z,10.3
2022-12-01T06:07:09.086Z,9.8
2022-12-01T06:37:08.533Z,11
2022-12-01T07:07:08.156Z,10.5
2022-12-01T07:37:07.417Z,10.5
2022-12-01T08:07:07.116Z,10.6
2022-12-01T08:37:06.410Z,11.5
2022-12-01T09:07:06.001Z,11.4
2022-12-01T09:37:06.733Z,12.6
2022-12-01T10:07:05.856Z,12.7
2022-12-01T10:37:04.695Z,14.1
2022-12-01T11:07:04.282Z,14.1
2022-12-01T11:37:05.154Z,12.5
2022-12-01T12:07:07.515Z,10.8
2022-12-01T12:37:09.073Z,9.1
2022-12-01T13:07:05.370Z,9.9
2022-12-01T13:37:02.696Z,8.7
2022-12-01T14:07:14.141Z,7.8
2022-12-01T14:37:06.513Z,7.6
2022-12-01T15:07:02.271Z,6.4
2022-12-01T15:37:01.970Z,6
2022-12-01T16:07:03.143Z,6.1
2022-12-01T16:37:00.451Z,6
2022-12-01T17:07:01.253Z,5.8
2022-12-01T17:36:59.610Z,5.6
2022-12-01T18:07:02.087Z,5.6
2022-12-01T18:37:00.045Z,6.1
2022-12-01T19:06:58.379Z,5.7
2022-12-01T19:36:59.654Z,5.7
2022-12-01T20:06:59.809Z,6.4
2022-12-01T20:36:57.060Z,7.2
2022-12-01T21:06:58.296Z,9.4
2022-12-01T21:37:00.099Z,10.5
2022-12-01T22:06:56.004Z,12.7
2022-12-01T22:36:55.185Z,14.4
2022-12-01T23:07:05.360Z,15
2022-12-01T23:36:54.331Z,16.8
